Time;durP1;ratioP1;P1;durP2;ratioP2;P2;SDS_P1;SDS_P2;PMS_P1;PMS_P2;Temp;Humidity;BMP_temperature;BMP_pressure;BME280_temperature;BME280_humidity;BME280_pressure;Samples;Min_cycle;Max_cycle;Signal;HPM_P1;HPM_P2
2022/02/22 00:00:01;;;;;;;6.40;0.97;;;4.00;99.90;;;;;;4208809;28;20809;-72
2022/02/22 00:02:03;;;;;;;4.67;1.00;;;4.00;99.90;;;;;;4205712;28;20471;-72
2022/02/22 00:04:05;;;;;;;3.90;0.93;;;4.00;99.90;;;;;;4212981;28;20930;-72
2022/02/22 00:06:07;;;;;;;2.93;0.80;;;4.10;99.90;;;;;;4209809;28;20471;-72
2022/02/22 00:08:10;;;;;;;5.00;0.90;;;4.10;99.90;;;;;;4206686;28;20517;-72
2022/02/22 00:10:14;;;;;;;3.27;0.90;;;4.10;99.90;;;;;;4204983;28;20831;-74
2022/02/22 00:12:16;;;;;;;3.60;0.80;;;4.10;99.90;;;;;;4202285;28;20464;-72
2022/02/22 00:14:18;;;;;;;2.03;0.97;;;4.10;99.90;;;;;;4210985;28;20479;-74
2022/02/22 00:16:20;;;;;;;3.47;0.90;;;4.10;99.90;;;;;;4205874;28;20482;-72
2022/02/22 00:18:22;;;;;;;7.07;1.07;;;4.10;99.90;;;;;;4210878;28;20867;-74
2022/02/22 00:20:24;;;;;;;5.77;1.00;;;4.10;99.90;;;;;;4203784;28;20472;-74
2022/02/22 00:22:25;;;;;;;3.87;0.97;;;4.10;99.90;;;;;;4204448;28;20818;-73
2022/02/22 00:24:29;;;;;;;5.67;0.90;;;4.10;99.90;;;;;;4198781;28;20448;-72
2022/02/22 00:26:30;;;;;;;4.53;0.80;;;4.20;99.90;;;;;;4206787;28;20451;-72
2022/02/22 00:28:32;;;;;;;1.20;0.60;;;4.10;99.90;;;;;;4211619;28;20498;-73
2022/02/22 00:30:34;;;;;;;3.13;0.80;;;4.20;99.90;;;;;;4205026;28;20961;-72
2022/02/22 00:32:39;;;;;;;4.90;0.77;;;4.20;99.90;;;;;;4211790;28;20847;-73
2022/02/22 00:34:41;;;;;;;2.23;0.60;;;4.20;99.90;;;;;;4212008;28;20544;-72
2022/02/22 00:36:43;;;;;;;2.20;0.80;;;4.20;99.90;;;;;;4212397;28;20450;-72
2022/02/22 00:38:49;;;;;;;4.07;0.87;;;4.20;99.90;;;;;;4207052;28;20471;-74
2022/02/22 00:40:52;;;;;;;3.40;0.50;;;4.20;99.90;;;;;;4211511;28;20893;-72
2022/02/22 00:42:54;;;;;;;6.10;0.80;;;4.20;99.90;;;;;;4210644;28;20485;-72
2022/02/22 00:44:56;;;;;;;2.93;0.77;;;4.20;99.90;;;;;;4206591;28;20548;-72
2022/02/22 00:46:58;;;;;;;2.30;0.80;;;4.30;99.90;;;;;;4205019;28;20543;-74
2022/02/22 00:48:59;;;;;;;1.77;0.63;;;4.20;99.90;;;;;;4208363;28;20451;-72
2022/02/22 00:51:01;;;;;;;3.53;0.50;;;4.20;99.90;;;;;;4208769;28;20464;-71
2022/02/22 00:53:03;;;;;;;1.30;0.63;;;4.20;99.90;;;;;;4204844;28;20518;-73
2022/02/22 00:55:05;;;;;;;4.33;0.60;;;4.20;99.90;;;;;;4205686;28;20487;-71
2022/02/22 00:57:09;;;;;;;2.50;0.80;;;4.20;99.90;;;;;;4212751;28;20451;-72
2022/02/22 00:59:10;;;;;;;3.50;0.50;;;4.20;99.90;;;;;;4207908;28;20537;-72
2022/02/22 01:01:14;;;;;;;3.20;1.00;;;4.20;99.90;;;;;;4203593;28;20513;-71
2022/02/22 01:03:15;;;;;;;4.53;1.00;;;4.20;99.90;;;;;;4195674;28;20479;-72
2022/02/22 01:05:17;;;;;;;3.33;0.77;;;4.20;99.90;;;;;;4201084;28;20482;-73
2022/02/22 01:07:20;;;;;;;1.03;0.50;;;4.30;99.90;;;;;;4211489;28;20459;-76
2022/02/22 01:09:22;;;;;;;1.90;0.50;;;4.20;99.90;;;;;;4199100;28;20451;-75
2022/02/22 01:11:24;;;;;;;3.30;0.60;;;4.30;99.90;;;;;;4212265;28;20455;-74
2022/02/22 01:13:27;;;;;;;2.13;0.50;;;4.20;99.90;;;;;;4211615;28;20451;-75
2022/02/22 01:15:28;;;;;;;3.60;0.77;;;4.30;99.90;;;;;;4210501;28;20556;-72
2022/02/22 01:17:30;;;;;;;3.43;0.70;;;4.30;99.90;;;;;;4205427;28;20463;-72
2022/02/22 01:19:32;;;;;;;2.67;0.50;;;4.20;99.90;;;;;;4211775;28;20816;-72
2022/02/22 01:21:34;;;;;;;1.50;0.40;;;4.20;99.90;;;;;;4205048;28;20460;-73
2022/02/22 01:23:36;;;;;;;2.17;0.70;;;4.30;99.90;;;;;;4207529;28;20786;-73
2022/02/22 01:25:37;;;;;;;2.47;0.67;;;4.30;99.90;;;;;;4199932;28;21052;-72
2022/02/22 01:27:39;;;;;;;4.53;0.90;;;4.30;99.90;;;;;;4212551;28;20968;-72
2022/02/22 01:29:42;;;;;;;1.70;0.60;;;4.30;99.90;;;;;;4202793;28;20464;-72
2022/02/22 01:31:44;;;;;;;4.33;0.60;;;4.30;99.90;;;;;;4207955;28;20954;-73
2022/02/22 01:33:46;;;;;;;2.27;0.60;;;4.30;99.90;;;;;;4210357;28;20536;-73
2022/02/22 01:35:47;;;;;;;1.60;0.73;;;4.30;99.90;;;;;;4211803;28;20471;-72
2022/02/22 01:37:49;;;;;;;2.90;0.70;;;4.30;99.90;;;;;;4202624;28;20502;-72
2022/02/22 01:39:51;;;;;;;5.10;0.80;;;4.30;99.90;;;;;;4204340;28;20505;-72
2022/02/22 01:41:53;;;;;;;3.70;0.60;;;4.30;99.90;;;;;;4212048;28;20459;-72
2022/02/22 01:43:54;;;;;;;3.70;0.83;;;4.30;99.90;;;;;;4212022;28;20463;-74
2022/02/22 01:45:58;;;;;;;4.40;1.03;;;4.30;99.90;;;;;;4211372;28;20548;-72
2022/02/22 01:47:59;;;;;;;3.10;0.50;;;4.30;99.90;;;;;;4198400;28;20463;-72
2022/02/22 01:50:01;;;;;;;4.63;0.80;;;4.30;99.90;;;;;;4204803;28;20455;-72
2022/02/22 01:52:04;;;;;;;2.37;0.80;;;4.30;99.90;;;;;;4203340;28;20882;-73
2022/02/22 01:54:06;;;;;;;7.13;0.90;;;4.30;99.90;;;;;;4203672;28;20582;-72
2022/02/22 01:56:08;;;;;;;5.03;1.00;;;4.20;99.90;;;;;;4210085;28;20487;-72
2022/02/22 01:58:10;;;;;;;10.90;1.00;;;4.20;99.90;;;;;;4213320;28;20476;-72
2022/02/22 02:00:13;;;;;;;6.90;1.13;;;4.20;99.90;;;;;;4211617;28;20451;-71
2022/02/22 02:02:17;;;;;;;4.47;0.70;;;4.20;99.90;;;;;;4199527;28;20509;-72
2022/02/22 02:04:18;;;;;;;4.90;0.83;;;4.30;99.90;;;;;;4207522;28;20455;-72
2022/02/22 02:06:21;;;;;;;5.90;0.70;;;4.30;99.90;;;;;;4213440;28;20454;-73
2022/02/22 02:08:23;;;;;;;2.17;0.70;;;4.30;99.90;;;;;;4213529;28;20462;-72
2022/02/22 02:10:25;;;;;;;5.87;1.33;;;4.30;99.90;;;;;;4205618;28;20487;-72
2022/02/22 02:12:27;;;;;;;2.23;0.80;;;4.30;99.90;;;;;;4215778;28;20512;-72
2022/02/22 02:14:29;;;;;;;4.50;0.97;;;4.30;99.90;;;;;;4211944;28;20525;-73
2022/02/22 02:16:31;;;;;;;3.50;0.60;;;4.30;99.90;;;;;;4207089;28;20472;-72
2022/02/22 02:18:34;;;;;;;6.27;1.17;;;4.30;99.90;;;;;;4209016;28;20451;-72
2022/02/22 02:20:35;;;;;;;6.23;0.97;;;4.30;99.90;;;;;;4214629;28;20516;-73
2022/02/22 02:22:39;;;;;;;4.07;0.80;;;4.40;99.90;;;;;;4209248;28;20459;-74
2022/02/22 02:24:40;;;;;;;6.47;0.70;;;4.40;99.90;;;;;;4206813;28;20490;-72
2022/02/22 02:26:43;;;;;;;4.77;0.60;;;4.40;99.90;;;;;;4203977;28;20477;-73
2022/02/22 02:28:45;;;;;;;5.93;0.80;;;4.40;99.90;;;;;;4199240;28;20975;-73
2022/02/22 02:30:46;;;;;;;3.17;0.70;;;4.40;99.90;;;;;;4210484;28;20875;-72
2022/02/22 02:32:48;;;;;;;2.70;0.80;;;4.40;99.90;;;;;;4207043;28;20459;-73
2022/02/22 02:34:50;;;;;;;1.63;0.77;;;4.50;99.90;;;;;;4203955;28;20496;-73
2022/02/22 02:36:52;;;;;;;3.57;0.80;;;4.50;99.90;;;;;;4213545;28;20458;-74
2022/02/22 02:38:55;;;;;;;2.03;0.70;;;4.50;99.90;;;;;;4205183;28;20723;-74
2022/02/22 02:40:56;;;;;;;3.60;0.50;;;4.50;99.90;;;;;;4205506;28;20466;-73
2022/02/22 02:42:58;;;;;;;5.73;0.90;;;4.50;99.90;;;;;;4207224;28;20471;-73
2022/02/22 02:45:00;;;;;;;2.40;0.60;;;4.50;99.90;;;;;;4207338;28;21041;-73
2022/02/22 02:47:04;;;;;;;2.13;0.50;;;4.50;99.90;;;;;;4208433;28;20940;-73
2022/02/22 02:49:07;;;;;;;4.00;0.70;;;4.60;99.90;;;;;;4207119;28;21025;-74
2022/02/22 02:51:09;;;;;;;1.53;0.60;;;4.60;99.90;;;;;;4209880;28;20447;-73
2022/02/22 02:53:10;;;;;;;2.70;0.80;;;4.60;99.90;;;;;;4205023;28;20464;-73
2022/02/22 02:55:13;;;;;;;3.77;0.70;;;4.60;99.90;;;;;;4205372;28;20496;-72
2022/02/22 02:57:15;;;;;;;4.40;0.70;;;4.60;99.90;;;;;;4215202;28;20553;-72
2022/02/22 02:59:17;;;;;;;4.97;0.80;;;4.60;99.90;;;;;;4209403;28;20472;-73
2022/02/22 03:01:18;;;;;;;4.23;0.80;;;4.60;99.90;;;;;;4204905;28;20470;-74
2022/02/22 03:03:20;;;;;;;7.13;1.37;;;4.60;99.90;;;;;;4213395;28;20466;-75
2022/02/22 03:05:22;;;;;;;4.63;0.93;;;4.60;99.90;;;;;;4205541;28;20480;-74
2022/02/22 03:07:24;;;;;;;5.27;1.03;;;4.60;99.90;;;;;;4214343;28;20811;-76
2022/02/22 03:09:25;;;;;;;5.80;1.00;;;4.60;99.90;;;;;;4214696;28;20455;-75
2022/02/22 03:11:28;;;;;;;6.33;1.00;;;4.60;99.90;;;;;;4211725;28;20906;-74
2022/02/22 03:13:30;;;;;;;3.50;0.90;;;4.60;99.90;;;;;;4213854;28;20467;-75
2022/02/22 03:15:32;;;;;;;4.30;1.03;;;4.60;99.90;;;;;;4197133;28;20491;-76
2022/02/22 03:17:35;;;;;;;7.60;1.30;;;4.60;99.90;;;;;;4213874;28;20466;-75
2022/02/22 03:19:36;;;;;;;9.27;1.40;;;4.60;99.90;;;;;;4213279;28;20497;-75
2022/02/22 03:21:38;;;;;;;12.97;2.10;;;4.60;99.90;;;;;;4207743;28;20455;-75
2022/02/22 03:23:40;;;;;;;17.47;2.07;;;4.60;99.90;;;;;;4210869;28;20468;-75
2022/02/22 03:25:42;;;;;;;14.83;1.93;;;4.60;99.90;;;;;;4210723;28;20550;-76
2022/02/22 03:27:45;;;;;;;16.67;2.30;;;4.60;99.90;;;;;;4206462;28;20479;-74
2022/02/22 03:29:49;;;;;;;13.87;1.80;;;4.60;99.90;;;;;;4212685;28;20455;-76
2022/02/22 03:31:51;;;;;;;8.90;1.63;;;4.60;99.90;;;;;;4212068;28;20488;-76
2022/02/22 03:33:53;;;;;;;14.40;2.23;;;4.60;99.90;;;;;;4209327;28;20467;-75
2022/02/22 03:35:54;;;;;;;18.47;2.73;;;4.60;99.90;;;;;;4206959;28;20495;-76
2022/02/22 03:37:56;;;;;;;18.13;2.37;;;4.60;99.90;;;;;;4211317;28;20455;-75
2022/02/22 03:39:58;;;;;;;14.63;2.10;;;4.60;99.90;;;;;;4213942;28;20447;-74
2022/02/22 03:41:59;;;;;;;18.93;2.00;;;4.60;99.90;;;;;;4213310;28;20455;-74
2022/02/22 03:44:03;;;;;;;14.90;2.23;;;4.60;99.90;;;;;;4203936;28;20463;-75
2022/02/22 03:46:04;;;;;;;12.00;2.03;;;4.60;99.90;;;;;;4210591;28;21571;-75
2022/02/22 03:48:06;;;;;;;16.93;2.60;;;4.50;99.90;;;;;;4211791;28;20971;-74
2022/02/22 03:50:09;;;;;;;17.23;2.20;;;4.60;99.90;;;;;;4210733;28;20467;-74
2022/02/22 03:52:11;;;;;;;17.93;2.90;;;4.60;99.90;;;;;;4204912;28;20520;-76
2022/02/22 03:54:12;;;;;;;17.30;2.40;;;4.50;99.90;;;;;;4204441;28;20447;-75
2022/02/22 03:56:14;;;;;;;16.97;2.13;;;4.50;99.90;;;;;;4209729;28;20537;-74
2022/02/22 03:58:16;;;;;;;16.60;2.50;;;4.50;99.90;;;;;;4213382;28;21206;-75
2022/02/22 04:00:21;;;;;;;19.17;2.60;;;4.50;99.90;;;;;;4203507;28;20529;-76
2022/02/22 04:02:22;;;;;;;16.57;2.67;;;4.50;99.90;;;;;;4205839;28;20944;-74
2022/02/22 04:04:24;;;;;;;16.60;2.53;;;4.50;99.90;;;;;;4212295;28;21038;-74
2022/02/22 04:06:26;;;;;;;19.87;2.47;;;4.50;99.90;;;;;;4213028;28;20863;-75
2022/02/22 04:08:28;;;;;;;19.10;2.17;;;4.50;99.90;;;;;;4209185;28;20826;-75
2022/02/22 04:10:30;;;;;;;22.27;3.33;;;4.40;99.90;;;;;;4205397;28;20455;-75
2022/02/22 04:12:31;;;;;;;13.60;1.93;;;4.40;99.90;;;;;;4211687;28;20455;-76
2022/02/22 04:14:33;;;;;;;14.63;2.53;;;4.30;99.90;;;;;;4203486;28;20534;-75
2022/02/22 04:16:36;;;;;;;13.23;2.80;;;4.20;99.90;;;;;;4208914;28;20459;-75
2022/02/22 04:18:38;;;;;;;12.70;2.00;;;4.20;99.90;;;;;;4198232;28;20822;-75
2022/02/22 04:20:39;;;;;;;16.10;2.10;;;4.20;99.90;;;;;;4199599;28;20505;-74
2022/02/22 04:22:41;;;;;;;16.73;2.23;;;4.10;99.90;;;;;;4210642;28;20459;-74
2022/02/22 04:24:43;;;;;;;11.57;1.80;;;4.00;99.90;;;;;;4204383;28;20540;-75
2022/02/22 04:26:45;;;;;;;17.43;2.53;;;3.90;99.90;;;;;;4203306;28;20504;-74
2022/02/22 04:28:47;;;;;;;23.03;3.20;;;3.90;99.90;;;;;;4213599;28;20523;-76
2022/02/22 04:30:48;;;;;;;16.30;2.87;;;3.80;99.90;;;;;;4214000;28;20447;-74
2022/02/22 04:32:51;;;;;;;14.33;2.43;;;3.70;99.90;;;;;;4212186;28;20466;-75
2022/02/22 04:34:53;;;;;;;17.00;3.10;;;3.70;99.90;;;;;;4205436;28;20487;-75
2022/02/22 04:36:55;;;;;;;10.33;1.87;;;3.70;99.90;;;;;;4211147;28;20452;-75
2022/02/22 04:38:57;;;;;;;12.70;2.00;;;3.70;99.90;;;;;;4212491;28;20887;-75
2022/02/22 04:40:58;;;;;;;15.13;2.27;;;3.70;99.90;;;;;;4211984;28;20828;-75
2022/02/22 04:43:00;;;;;;;15.47;2.03;;;3.70;99.90;;;;;;4203519;28;20525;-75
2022/02/22 04:45:02;;;;;;;13.57;1.80;;;3.70;99.90;;;;;;4204542;28;20520;-74
2022/02/22 04:47:04;;;;;;;7.10;1.57;;;3.70;99.90;;;;;;4211430;28;20451;-73
2022/02/22 04:49:09;;;;;;;12.70;1.67;;;3.70;99.90;;;;;;4203871;28;20458;-74
2022/02/22 04:51:11;;;;;;;7.63;1.40;;;3.60;99.90;;;;;;4197164;28;20880;-74
2022/02/22 04:53:13;;;;;;;12.27;1.97;;;3.60;99.90;;;;;;4198064;28;20472;-74
2022/02/22 04:55:15;;;;;;;5.83;1.37;;;3.60;99.90;;;;;;4196504;28;20808;-75
2022/02/22 04:57:16;;;;;;;11.57;1.50;;;3.50;99.90;;;;;;4201302;28;20482;-76
2022/02/22 04:59:18;;;;;;;10.93;1.40;;;3.50;99.90;;;;;;4204627;28;20452;-75
2022/02/22 05:01:20;;;;;;;5.87;1.77;;;3.50;99.90;;;;;;4203919;28;20865;-75
2022/02/22 05:03:22;;;;;;;8.77;1.53;;;3.40;99.90;;;;;;4202160;28;20459;-76
2022/02/22 05:05:25;;;;;;;13.87;1.57;;;3.40;99.90;;;;;;4204522;28;20880;-76
2022/02/22 05:07:27;;;;;;;7.73;1.60;;;3.30;99.90;;;;;;4202130;28;20460;-76
2022/02/22 05:09:28;;;;;;;6.63;1.67;;;3.30;99.90;;;;;;4210986;28;20451;-75
2022/02/22 05:11:30;;;;;;;7.43;1.53;;;3.30;99.90;;;;;;4199450;28;21029;-75
2022/02/22 05:13:32;;;;;;;8.73;1.10;;;3.30;99.90;;;;;;4211543;28;20447;-75
2022/02/22 05:15:34;;;;;;;4.37;1.20;;;3.20;99.90;;;;;;4208016;28;20490;-74
2022/02/22 05:17:35;;;;;;;8.20;1.50;;;3.20;99.90;;;;;;4204002;28;20860;-75
2022/02/22 05:19:37;;;;;;;9.50;1.47;;;3.20;99.90;;;;;;4200546;28;20480;-74
2022/02/22 05:21:41;;;;;;;6.57;1.20;;;3.10;99.90;;;;;;4203754;28;20447;-76
2022/02/22 05:23:43;;;;;;;7.03;1.40;;;3.10;99.90;;;;;;4198750;28;20502;-74
2022/02/22 05:25:44;;;;;;;6.53;1.77;;;3.10;99.90;;;;;;4198010;28;20475;-76
2022/02/22 05:27:47;;;;;;;8.07;1.50;;;3.10;99.90;;;;;;4204484;28;21963;-76
2022/02/22 05:29:48;;;;;;;10.97;1.80;;;3.10;99.90;;;;;;4202525;28;20460;-76
2022/02/22 05:31:50;;;;;;;9.23;2.10;;;3.10;99.90;;;;;;4198709;28;20882;-76
2022/02/22 05:33:52;;;;;;;14.10;1.80;;;3.10;99.90;;;;;;4201474;28;20946;-76
2022/02/22 05:35:55;;;;;;;10.63;2.63;;;3.20;99.90;;;;;;4202927;28;20492;-76
2022/02/22 05:37:58;;;;;;;15.10;2.33;;;3.20;99.90;;;;;;4208241;28;20466;-75
2022/02/22 05:40:00;;;;;;;12.47;1.83;;;3.20;99.90;;;;;;4201406;28;20498;-74
2022/02/22 05:42:01;;;;;;;7.40;1.73;;;3.20;99.90;;;;;;4214001;28;20501;-74
2022/02/22 05:44:03;;;;;;;10.17;1.67;;;3.20;99.90;;;;;;4215097;28;20470;-76
2022/02/22 05:46:05;;;;;;;6.53;1.47;;;3.20;99.90;;;;;;4215877;28;20470;-74
2022/02/22 05:48:07;;;;;;;18.77;2.27;;;3.20;99.90;;;;;;4213462;28;20463;-75
2022/02/22 05:50:09;;;;;;;9.43;1.53;;;3.20;99.90;;;;;;4208972;28;20460;-75
2022/02/22 05:52:12;;;;;;;10.30;1.90;;;3.20;99.90;;;;;;4200314;28;20456;-73
2022/02/22 05:54:15;;;;;;;10.13;2.30;;;3.30;99.90;;;;;;4201989;28;20933;-75
2022/02/22 05:56:17;;;;;;;7.97;1.67;;;3.30;99.90;;;;;;4202160;28;20479;-75
2022/02/22 05:58:19;;;;;;;14.57;1.70;;;3.30;99.90;;;;;;4208486;28;20912;-74
2022/02/22 06:00:21;;;;;;;15.33;2.13;;;3.30;99.90;;;;;;4210918;28;20458;-73
2022/02/22 06:02:22;;;;;;;13.23;2.00;;;3.30;99.90;;;;;;4207135;28;20455;-73
2022/02/22 06:04:26;;;;;;;12.27;2.43;;;3.40;99.90;;;;;;4204564;28;20460;-73
2022/02/22 06:06:28;;;;;;;18.87;3.13;;;3.40;99.90;;;;;;4203055;28;20476;-73
2022/02/22 06:08:30;;;;;;;12.67;2.93;;;3.40;99.90;;;;;;4204632;28;20819;-73
2022/02/22 06:10:33;;;;;;;16.17;2.50;;;3.40;99.90;;;;;;4204014;28;20941;-73
2022/02/22 06:12:35;;;;;;;23.37;2.80;;;3.40;99.90;;;;;;4209166;28;20493;-73
2022/02/22 06:14:37;;;;;;;10.07;1.83;;;3.50;99.90;;;;;;4211540;28;20495;-74
2022/02/22 06:16:39;;;;;;;14.87;2.40;;;3.40;99.90;;;;;;4209634;28;20893;-74
2022/02/22 06:18:40;;;;;;;17.60;2.23;;;3.40;99.90;;;;;;4211067;28;20508;-74
2022/02/22 06:20:43;;;;;;;15.77;2.23;;;3.40;99.90;;;;;;4208373;28;20884;-75
2022/02/22 06:22:45;;;;;;;24.10;2.70;;;3.40;99.90;;;;;;4214264;28;20455;-73
2022/02/22 06:24:47;;;;;;;11.80;2.43;;;3.40;99.90;;;;;;4212449;28;21263;-73
2022/02/22 06:26:50;;;;;;;14.97;2.87;;;3.40;99.90;;;;;;4208670;28;20461;-74
2022/02/22 06:28:52;;;;;;;12.07;2.30;;;3.40;99.90;;;;;;4205327;28;20514;-73
2022/02/22 06:30:54;;;;;;;18.40;2.17;;;3.40;99.90;;;;;;4204428;28;20466;-74
2022/02/22 06:32:55;;;;;;;18.77;2.30;;;3.30;99.90;;;;;;4213457;28;20797;-73
2022/02/22 06:34:57;;;;;;;10.37;2.00;;;3.30;99.90;;;;;;4204151;28;20479;-75
2022/02/22 06:36:59;;;;;;;12.17;2.60;;;3.30;99.90;;;;;;4206348;28;20495;-75
2022/02/22 06:39:01;;;;;;;14.70;2.37;;;3.30;99.90;;;;;;4200487;28;20471;-75
2022/02/22 06:41:03;;;;;;;10.67;2.13;;;3.30;99.90;;;;;;4212996;28;20989;-78
2022/02/22 06:43:06;;;;;;;20.47;2.73;;;3.30;99.90;;;;;;4212328;28;20920;-75
2022/02/22 06:45:10;;;;;;;12.47;2.10;;;3.30;99.90;;;;;;4206994;28;20968;-73
2022/02/22 06:47:12;;;;;;;16.20;2.23;;;3.20;99.90;;;;;;4208455;28;20490;-74
2022/02/22 06:49:13;;;;;;;13.90;2.20;;;3.20;99.90;;;;;;4210523;28;20505;-73
2022/02/22 06:51:15;;;;;;;14.40;2.20;;;3.20;99.90;;;;;;4208828;28;20455;-74
2022/02/22 06:53:17;;;;;;;12.47;2.40;;;3.20;99.90;;;;;;4211384;28;20509;-76
2022/02/22 06:55:19;;;;;;;15.33;2.60;;;3.30;99.90;;;;;;4213744;28;20509;-73
2022/02/22 06:57:21;;;;;;;10.93;1.80;;;3.30;99.90;;;;;;4211759;28;20544;-73
2022/02/22 06:59:24;;;;;;;9.77;1.93;;;3.30;99.90;;;;;;4210248;28;20511;-74
2022/02/22 07:01:26;;;;;;;15.20;1.90;;;3.40;99.90;;;;;;4211320;28;20470;-74
2022/02/22 07:03:27;;;;;;;8.57;2.00;;;3.40;99.90;;;;;;4211248;28;20479;-76
2022/02/22 07:05:29;;;;;;;13.20;2.00;;;3.40;99.90;;;;;;4210451;28;20494;-73
2022/02/22 07:07:31;;;;;;;17.67;2.37;;;3.50;99.90;;;;;;4213259;28;20508;-74
2022/02/22 07:09:33;;;;;;;15.33;2.87;;;3.50;99.90;;;;;;4211603;28;20580;-73
2022/02/22 07:11:35;;;;;;;21.80;2.40;;;3.50;99.90;;;;;;4208815;28;20451;-74
2022/02/22 07:13:36;;;;;;;8.77;2.30;;;3.60;99.90;;;;;;4207097;28;20467;-73
2022/02/22 07:17:50;;;;;;;17.00;2.27;;;3.70;99.90;;;;;;4220636;28;20483;-79
2022/02/22 07:19:52;;;;;;;15.77;1.90;;;3.80;99.90;;;;;;4210533;28;20529;-84
2022/02/22 07:21:53;;;;;;;19.27;2.20;;;3.80;99.90;;;;;;4196675;28;20460;-79
2022/02/22 07:23:55;;;;;;;14.63;2.10;;;3.80;99.90;;;;;;4204530;28;20463;-80
2022/02/22 07:25:57;;;;;;;14.97;2.10;;;3.90;99.90;;;;;;4202235;28;20481;-79
2022/02/22 07:28:01;;;;;;;19.87;3.10;;;3.90;99.90;;;;;;4209835;28;20460;-79
2022/02/22 07:30:03;;;;;;;10.37;2.07;;;3.90;99.90;;;;;;4209076;28;20463;-79
2022/02/22 07:32:06;;;;;;;11.47;2.30;;;3.90;99.90;;;;;;4206310;28;20573;-80
2022/02/22 07:34:09;;;;;;;15.00;2.30;;;3.90;99.90;;;;;;4203323;28;20463;-79
2022/02/22 07:36:12;;;;;;;12.80;2.20;;;3.90;99.90;;;;;;4213529;28;20499;-79
2022/02/22 07:38:14;;;;;;;15.63;2.67;;;3.80;99.90;;;;;;4210143;28;20489;-79
2022/02/22 07:40:18;;;;;;;11.17;2.27;;;3.80;99.90;;;;;;4215352;28;20443;-79
2022/02/22 07:42:20;;;;;;;12.70;2.20;;;3.80;99.90;;;;;;4217045;28;20465;-79
2022/02/22 07:44:21;;;;;;;13.30;2.13;;;3.80;99.90;;;;;;4218290;28;20476;-79
2022/02/22 07:46:23;;;;;;;13.53;2.10;;;3.80;99.90;;;;;;4217925;28;20483;-79
2022/02/22 07:48:25;;;;;;;10.00;2.27;;;3.80;99.90;;;;;;4215184;28;20467;-79
2022/02/22 07:50:28;;;;;;;11.80;1.80;;;3.80;99.90;;;;;;4211241;28;20456;-80
2022/02/22 07:52:31;;;;;;;12.93;1.70;;;3.70;99.90;;;;;;4205496;28;20452;-80
2022/02/22 07:54:32;;;;;;;8.90;1.90;;;3.70;99.90;;;;;;4209934;28;20463;-80
2022/02/22 07:56:34;;;;;;;9.23;1.60;;;3.70;99.90;;;;;;4208186;28;20537;-80
2022/02/22 07:58:36;;;;;;;10.63;1.80;;;3.70;99.90;;;;;;4207424;28;20538;-80
2022/02/22 08:00:38;;;;;;;11.87;2.07;;;3.60;99.90;;;;;;4209191;28;20463;-79
2022/02/22 08:02:40;;;;;;;12.60;2.03;;;3.70;99.90;;;;;;4199099;28;20485;-79
2022/02/22 08:04:41;;;;;;;12.80;2.70;;;3.70;99.90;;;;;;4208426;28;20455;-79
2022/02/22 08:06:44;;;;;;;15.13;1.73;;;3.70;99.90;;;;;;4206694;28;20451;-79
2022/02/22 08:08:46;;;;;;;10.40;1.93;;;3.80;99.90;;;;;;4208027;28;20508;-79
2022/02/22 08:10:48;;;;;;;11.87;1.90;;;3.80;99.90;;;;;;4208353;28;20451;-79
2022/02/22 08:12:51;;;;;;;12.50;1.83;;;3.90;99.90;;;;;;4206496;28;21083;-80
2022/02/22 08:14:53;;;;;;;8.67;1.53;;;4.00;99.90;;;;;;4207520;28;20470;-79
2022/02/22 08:16:57;;;;;;;18.63;2.33;;;4.10;99.90;;;;;;4205930;28;20580;-80
2022/02/22 08:19:01;;;;;;;7.30;2.03;;;4.10;99.90;;;;;;4208840;28;20558;-80
2022/02/22 08:21:05;;;;;;;15.27;2.67;;;4.20;99.90;;;;;;4208152;28;20501;-79
2022/02/22 08:23:08;;;;;;;14.40;2.23;;;4.20;99.90;;;;;;4206987;28;20779;-79
2022/02/22 08:25:10;;;;;;;9.27;1.90;;;4.20;99.90;;;;;;4207202;28;20491;-78
2022/02/22 08:27:13;;;;;;;18.90;2.33;;;4.20;99.90;;;;;;4205412;28;20927;-79
2022/02/22 08:29:14;;;;;;;8.97;2.00;;;4.30;99.90;;;;;;4206684;28;20466;-79
2022/02/22 08:31:16;;;;;;;16.60;2.60;;;4.50;99.90;;;;;;4205246;28;20500;-79
2022/02/22 08:33:18;;;;;;;14.50;2.03;;;4.30;99.90;;;;;;4203246;28;20536;-79
2022/02/22 08:35:20;;;;;;;23.10;3.07;;;4.30;99.90;;;;;;4205727;28;20483;-80
2022/02/22 08:37:21;;;;;;;17.40;2.50;;;4.30;99.90;;;;;;4206063;28;20506;-80
2022/02/22 08:39:25;;;;;;;14.20;2.47;;;4.30;99.90;;;;;;4207304;28;20463;-79
2022/02/22 08:41:28;;;;;;;11.57;2.63;;;4.30;99.90;;;;;;4200865;28;20595;-80
2022/02/22 08:43:29;;;;;;;16.13;2.63;;;4.30;99.90;;;;;;4199186;28;20443;-80
2022/02/22 08:45:32;;;;;;;10.27;2.00;;;4.40;99.90;;;;;;4209600;28;21223;-80
2022/02/22 08:47:33;;;;;;;13.30;2.47;;;4.40;99.90;;;;;;4209052;28;20464;-80
2022/02/22 08:49:36;;;;;;;8.93;1.87;;;4.40;99.90;;;;;;4210304;28;20905;-80
2022/02/22 08:51:38;;;;;;;12.30;2.67;;;4.30;99.90;;;;;;4208194;28;20835;-80
2022/02/22 08:53:40;;;;;;;16.40;3.07;;;4.40;99.90;;;;;;4208879;28;20513;-80
2022/02/22 08:55:43;;;;;;;11.70;2.33;;;4.40;99.90;;;;;;4209859;28;20793;-79
2022/02/22 08:57:45;;;;;;;11.60;2.33;;;4.40;99.90;;;;;;4209723;28;20564;-79
2022/02/22 08:59:47;;;;;;;8.23;2.13;;;4.50;99.90;;;;;;4200333;28;20534;-78
2022/02/22 09:01:49;;;;;;;11.30;2.27;;;4.60;99.90;;;;;;4204340;28;20479;-79
2022/02/22 09:03:51;;;;;;;15.07;2.30;;;4.60;99.90;;;;;;4204825;28;20472;-79
2022/02/22 09:05:54;;;;;;;17.20;2.97;;;4.70;99.90;;;;;;4207755;28;20463;-79
2022/02/22 09:07:56;;;;;;;17.77;3.33;;;4.70;99.90;;;;;;4206487;28;20946;-79
2022/02/22 09:09:58;;;;;;;13.87;2.37;;;4.80;99.90;;;;;;4206980;28;20538;-79
2022/02/22 09:12:02;;;;;;;14.33;2.07;;;4.80;99.90;;;;;;4206366;28;20473;-78
2022/02/22 09:14:04;;;;;;;19.43;2.80;;;4.90;99.90;;;;;;4207198;28;20472;-79
2022/02/22 09:16:06;;;;;;;12.53;2.20;;;5.00;99.90;;;;;;4207695;28;20471;-80
2022/02/22 09:18:08;;;;;;;12.97;2.83;;;5.10;99.90;;;;;;4203240;28;20905;-79
2022/02/22 09:20:13;;;;;;;13.50;2.60;;;5.10;99.90;;;;;;4204054;28;20459;-78
2022/02/22 09:22:15;;;;;;;13.37;2.57;;;5.10;99.90;;;;;;4204900;28;20462;-78
2022/02/22 09:24:16;;;;;;;12.30;2.53;;;5.20;99.90;;;;;;4205482;28;20455;-78
2022/02/22 09:26:18;;;;;;;19.70;2.47;;;5.20;99.90;;;;;;4206316;28;20492;-77
2022/02/22 09:28:21;;;;;;;8.90;2.27;;;5.20;99.90;;;;;;4207071;28;20478;-79
2022/02/22 09:30:23;;;;;;;12.00;2.40;;;5.20;99.90;;;;;;4206482;28;20457;-79
2022/02/22 09:32:25;;;;;;;14.93;2.13;;;5.20;99.90;;;;;;4204548;28;20470;-80
2022/02/22 09:34:27;;;;;;;9.90;2.20;;;5.20;99.90;;;;;;4206819;28;20474;-79
2022/02/22 09:36:29;;;;;;;12.40;1.93;;;5.20;99.90;;;;;;4205477;28;20483;-79
2022/02/22 09:38:31;;;;;;;11.70;2.37;;;5.20;99.90;;;;;;4207005;28;20565;-79
2022/02/22 09:40:33;;;;;;;15.97;1.90;;;5.20;99.90;;;;;;4207766;28;20883;-79
2022/02/22 09:42:35;;;;;;;11.37;2.20;;;5.20;99.90;;;;;;4205726;28;20472;-78
2022/02/22 09:44:40;;;;;;;18.30;2.13;;;5.10;99.90;;;;;;4205545;28;20469;-79
2022/02/22 09:46:42;;;;;;;12.33;2.20;;;5.40;99.90;;;;;;4207976;28;20456;-78
2022/02/22 09:48:44;;;;;;;9.07;1.80;;;5.40;99.90;;;;;;4208182;28;20452;-78
2022/02/22 09:50:46;;;;;;;9.30;1.93;;;5.40;99.90;;;;;;4209620;28;20469;-79
2022/02/22 09:52:47;;;;;;;12.60;2.53;;;5.70;99.90;;;;;;4211459;28;20985;-78
2022/02/22 09:54:49;;;;;;;13.73;2.40;;;5.50;99.90;;;;;;4205026;28;20491;-78
2022/02/22 09:56:51;;;;;;;18.73;2.57;;;5.50;99.90;;;;;;4210685;28;20460;-77
2022/02/22 09:58:53;;;;;;;11.53;2.23;;;5.50;99.90;;;;;;4211191;28;20518;-78
2022/02/22 10:01:00;;;;;;;8.67;1.93;;;5.60;99.90;;;;;;4202525;28;20472;-79
2022/02/22 10:03:02;;;;;;;13.13;2.33;;;5.60;99.90;;;;;;4202000;28;20464;-79
2022/02/22 10:05:13;;;;;;;7.30;2.00;;;5.60;99.90;;;;;;4210332;28;20487;-79
2022/02/22 10:07:15;;;;;;;16.37;2.87;;;5.60;99.90;;;;;;4209220;28;21223;-79
2022/02/22 10:09:18;;;;;;;10.27;2.43;;;5.60;99.90;;;;;;4211697;28;20456;-79
2022/02/22 10:11:19;;;;;;;12.27;2.40;;;5.70;99.90;;;;;;4208401;28;20464;-78
2022/02/22 10:13:21;;;;;;;15.30;2.53;;;5.70;99.90;;;;;;4213987;28;20539;-76
2022/02/22 10:15:23;;;;;;;19.87;2.87;;;5.70;99.90;;;;;;4212856;28;20473;-79
2022/02/22 10:17:27;;;;;;;15.30;3.20;;;5.70;99.90;;;;;;4211228;28;20493;-80
2022/02/22 10:19:30;;;;;;;14.17;2.40;;;5.70;99.90;;;;;;4208310;28;20551;-80
2022/02/22 10:21:50;;;;;;;17.33;2.70;;;5.80;99.90;;;;;;4210666;28;20452;-78
2022/02/22 10:23:52;;;;;;;12.90;2.17;;;5.80;99.90;;;;;;4211059;28;20968;-78
2022/02/22 10:25:56;;;;;;;10.33;2.33;;;5.80;99.90;;;;;;4202384;28;20579;-78
2022/02/22 10:28:00;;;;;;;7.53;2.03;;;5.90;99.90;;;;;;4208706;28;20456;-80
2022/02/22 10:30:02;;;;;;;9.50;2.10;;;5.90;99.90;;;;;;4209852;28;20518;-79
2022/02/22 10:32:11;;;;;;;12.67;1.93;;;5.90;99.90;;;;;;4207577;28;20464;-78
2022/02/22 10:34:14;;;;;;;11.87;2.40;;;5.90;99.90;;;;;;4208054;28;20513;-79
2022/02/22 10:36:20;;;;;;;13.40;2.03;;;6.00;99.90;;;;;;4207464;28;20490;-80
2022/02/22 10:38:25;;;;;;;10.37;2.50;;;6.10;99.90;;;;;;4207535;28;20492;-80
2022/02/22 10:40:29;;;;;;;16.00;2.57;;;6.10;99.90;;;;;;4193307;28;20453;-79